Time;durP1;ratioP1;P1;durP2;ratioP2;P2;SDS_P1;SDS_P2;PMS_P1;PMS_P2;Temp;Humidity;BMP_temperature;BMP_pressure;BME280_temperature;BME280_humidity;BME280_pressure;Samples;Min_cycle;Max_cycle;Signal;HPM_P1;HPM_P2
2020/12/22 00:01:41;;;;;;;78.70;41.55;;;;;;;-0.55;72.07;95387.42;1758811;81;21107;-50
2020/12/22 00:04:10;;;;;;;80.45;44.30;;;;;;;-0.61;72.23;95384.24;1758808;81;21418;-50
2020/12/22 00:06:38;;;;;;;78.35;42.62;;;;;;;-0.61;72.36;95383.48;1758882;81;21625;-49
2020/12/22 00:09:07;;;;;;;80.77;44.18;;;;;;;-0.56;72.44;95378.52;1758823;81;21379;-51
2020/12/22 00:11:35;;;;;;;93.52;50.67;;;;;;;-0.42;72.34;95382.05;1758752;80;21162;-50
2020/12/22 00:14:04;;;;;;;102.30;55.60;;;;;;;-0.27;72.17;95383.26;1758791;81;21116;-52
2020/12/22 00:16:37;;;;;;;111.28;57.25;;;;;;;-0.15;71.97;95391.17;1758798;81;21147;-50
2020/12/22 00:19:05;;;;;;;117.42;56.53;;;;;;;-0.05;71.56;95389.78;1758954;81;21472;-50
2020/12/22 00:21:34;;;;;;;103.75;52.98;;;;;;;-0.02;71.44;95389.05;1758924;81;22270;-50
2020/12/22 00:24:02;;;;;;;94.90;51.08;;;;;;;-0.02;71.22;95387.69;1758740;80;21138;-50
2020/12/22 00:26:31;;;;;;;93.47;49.50;;;;;;;-0.02;71.30;95382.48;1758746;81;21147;-50
2020/12/22 00:29:00;;;;;;;97.42;49.75;;;;;;;0.02;71.17;95387.38;1758824;81;21075;-50
2020/12/22 00:31:28;;;;;;;92.72;48.25;;;;;;;0.03;71.09;95391.63;1758899;81;21636;-50
2020/12/22 00:33:57;;;;;;;113.12;55.40;;;;;;;0.03;71.14;95389.52;1758789;81;21351;-50
2020/12/22 00:36:25;;;;;;;120.77;57.03;;;;;;;0.05;71.10;95387.22;1758788;81;21087;-49
2020/12/22 00:38:53;;;;;;;132.18;61.25;;;;;;;0.07;71.04;95393.81;1758780;81;21150;-51
2020/12/22 00:41:23;;;;;;;118.15;59.25;;;;;;;0.06;70.99;95399.60;1758752;81;21107;-50
2020/12/22 00:43:51;;;;;;;109.85;55.43;;;;;;;0.02;71.10;95388.72;1758907;81;21569;-49
2020/12/22 00:46:20;;;;;;;115.20;57.53;;;;;;;-0.02;71.06;95395.80;1758752;81;21488;-50
2020/12/22 00:48:49;;;;;;;112.83;57.53;;;;;;;-0.08;71.25;95395.33;1758638;80;21126;-49
2020/12/22 00:51:23;;;;;;;186.40;80.67;;;;;;;-0.09;71.67;95395.13;1761560;81;21155;-50
2020/12/22 00:53:53;;;;;;;136.07;66.85;;;;;;;-0.05;71.42;95393.83;1764300;81;21147;-50
2020/12/22 00:56:22;;;;;;;114.70;59.73;;;;;;;-0.18;71.55;95396.52;1764472;81;21139;-51
2020/12/22 00:58:51;;;;;;;97.97;52.27;;;;;;;-0.26;71.80;95392.92;1764446;80;21434;-49
2020/12/22 01:01:20;;;;;;;94.32;48.90;;;;;;;-0.29;72.07;95392.86;1764340;81;21079;-50
2020/12/22 01:03:48;;;;;;;97.55;53.50;;;;;;;-0.28;72.17;95390.36;1764566;81;21623;-49
2020/12/22 01:06:16;;;;;;;98.20;53.73;;;;;;;-0.32;72.12;95388.98;1764432;81;21071;-50
2020/12/22 01:08:45;;;;;;;129.63;67.85;;;;;;;-0.35;72.25;95384.86;1764484;81;21095;-49
2020/12/22 01:11:14;;;;;;;132.40;69.80;;;;;;;-0.36;72.38;95384.65;1764451;80;21327;-49
2020/12/22 01:13:43;;;;;;;138.77;70.90;;;;;;;-0.37;72.47;95378.45;1764385;81;21138;-49
2020/12/22 01:16:12;;;;;;;146.20;73.57;;;;;;;-0.34;72.83;95374.25;1764536;81;21583;-49
2020/12/22 01:18:43;;;;;;;129.95;69.20;;;;;;;-0.24;72.75;95366.89;1764224;81;21162;-50
2020/12/22 01:21:20;;;;;;;133.03;67.50;;;;;;;-0.17;72.68;95359.67;1764515;81;21131;-49
2020/12/22 01:23:48;;;;;;;136.80;69.77;;;;;;;-0.15;72.31;95356.59;1764584;80;22200;-50
2020/12/22 01:26:22;;;;;;;129.15;65.10;;;;;;;-0.24;72.34;95355.49;1764430;81;21123;-50
2020/12/22 01:28:50;;;;;;;109.85;57.17;;;;;;;-0.24;72.53;95350.67;1764855;81;21203;-50
2020/12/22 01:31:31;;;;;;;112.77;57.62;;;;;;;-0.25;72.46;95346.41;1764698;81;21472;-50
2020/12/22 01:33:59;;;;;;;104.80;53.33;;;;;;;-0.26;72.44;95351.61;1764595;80;21761;-50
2020/12/22 01:36:27;;;;;;;101.18;52.53;;;;;;;-0.29;72.45;95350.97;1764593;80;21361;-49
2020/12/22 01:38:56;;;;;;;99.92;50.75;;;;;;;-0.33;72.42;95352.84;1764491;80;21504;-49
2020/12/22 01:41:25;;;;;;;100.20;53.98;;;;;;;-0.36;72.73;95357.06;1764556;81;21208;-50
2020/12/22 01:44:12;;;;;;;107.58;57.33;;;;;;;-0.31;72.63;95354.61;1764659;81;21146;-50
2020/12/22 01:46:47;;;;;;;100.85;53.35;;;;;;;-0.33;72.74;95351.48;1764617;81;21150;-49
2020/12/22 01:49:24;;;;;;;97.82;48.50;;;;;;;-0.27;72.85;95354.08;1764360;81;21283;-49
2020/12/22 01:51:55;;;;;;;101.97;51.10;;;;;;;-0.17;72.59;95349.41;1761161;81;21167;-49
2020/12/22 01:54:25;;;;;;;87.35;47.93;;;;;;;-0.12;72.47;95347.74;1758940;81;21163;-49
2020/12/22 01:56:53;;;;;;;97.62;49.40;;;;;;;-0.09;72.13;95347.01;1758980;80;21138;-50
2020/12/22 01:59:21;;;;;;;103.40;53.08;;;;;;;-0.14;72.08;95351.39;1758922;81;21114;-49
2020/12/22 02:01:50;;;;;;;99.67;49.98;;;;;;;-0.21;72.06;95347.23;1758866;81;21213;-50
2020/12/22 02:04:19;;;;;;;92.50;47.00;;;;;;;-0.25;72.32;95342.36;1758936;80;21479;-50
2020/12/22 02:06:48;;;;;;;93.97;49.95;;;;;;;-0.23;72.31;95333.31;1758947;80;21516;-51
2020/12/22 02:09:17;;;;;;;102.55;52.70;;;;;;;-0.22;72.49;95341.63;1758902;81;21060;-50
2020/12/22 02:11:45;;;;;;;91.78;48.02;;;;;;;-0.14;72.58;95335.16;1758897;81;21802;-50
2020/12/22 02:14:13;;;;;;;97.20;52.38;;;;;;;-0.10;72.25;95337.34;1758884;81;21469;-49
2020/12/22 02:16:42;;;;;;;96.12;50.73;;;;;;;-0.18;72.03;95337.05;1758836;81;21151;-50
2020/12/22 02:19:12;;;;;;;85.50;49.45;;;;;;;-0.24;72.11;95341.22;1757184;81;21146;-49
2020/12/22 02:21:40;;;;;;;96.92;50.90;;;;;;;-0.28;72.11;95345.77;1758979;81;21528;-50
2020/12/22 02:24:09;;;;;;;100.92;51.10;;;;;;;-0.31;72.21;95341.09;1758988;81;21504;-49
2020/12/22 02:26:37;;;;;;;94.22;49.77;;;;;;;-0.32;72.66;95336.83;1758866;81;21478;-49
2020/12/22 02:29:06;;;;;;;98.67;52.80;;;;;;;-0.21;72.58;95330.43;1758815;81;21524;-50
2020/12/22 02:31:34;;;;;;;98.80;51.73;;;;;;;-0.12;72.14;95332.88;1758901;80;21118;-50
2020/12/22 02:34:03;;;;;;;97.35;51.92;;;;;;;-0.16;72.02;95326.64;1758891;81;21159;-49
2020/12/22 02:36:33;;;;;;;93.92;49.27;;;;;;;-0.14;72.09;95329.76;1758970;80;21166;-50
2020/12/22 02:39:02;;;;;;;102.67;53.42;;;;;;;-0.08;71.92;95325.03;1758880;80;22036;-50
2020/12/22 02:41:30;;;;;;;95.77;51.63;;;;;;;-0.04;71.71;95331.84;1758745;81;21175;-50
2020/12/22 02:43:59;;;;;;;104.05;53.60;;;;;;;-0.05;71.63;95331.64;1758869;80;21084;-50
2020/12/22 02:46:27;;;;;;;102.22;54.13;;;;;;;-0.04;71.64;95329.14;1758850;80;21135;-50
2020/12/22 02:48:56;;;;;;;99.17;51.37;;;;;;;-0.02;71.56;95335.16;1758846;81;21203;-51
2020/12/22 02:51:24;;;;;;;89.85;47.67;;;;;;;-0.02;71.50;95339.22;1760149;80;21434;-51
2020/12/22 02:53:53;;;;;;;81.02;46.23;;;;;;;0.01;71.52;95335.02;1764431;81;21556;-50
2020/12/22 02:56:22;;;;;;;91.45;48.50;;;;;;;0.08;71.59;95328.34;1764510;81;21098;-49
2020/12/22 02:58:51;;;;;;;100.55;52.70;;;;;;;0.16;71.42;95337.54;1764537;80;21202;-51
2020/12/22 03:01:20;;;;;;;104.40;53.30;;;;;;;0.19;71.24;95330.63;1764582;81;21087;-50
2020/12/22 03:03:48;;;;;;;110.75;56.40;;;;;;;0.16;71.11;95328.63;1764557;80;21364;-49
2020/12/22 03:06:17;;;;;;;119.22;60.75;;;;;;;0.09;71.20;95325.28;1764493;81;21487;-50
2020/12/22 03:08:46;;;;;;;117.20;59.35;;;;;;;0.05;71.58;95333.90;1764532;81;21071;-50
2020/12/22 03:11:16;;;;;;;114.80;58.92;;;;;;;0.09;71.44;95326.64;1764526;81;21063;-49
2020/12/22 03:13:44;;;;;;;110.45;57.20;;;;;;;0.09;71.58;95319.08;1764596;81;21754;-50
2020/12/22 03:16:13;;;;;;;102.42;55.90;;;;;;;0.11;71.47;95310.81;1764526;81;21422;-49
2020/12/22 03:18:41;;;;;;;124.15;60.12;;;;;;;0.14;71.66;95322.25;1747312;81;21583;-49
2020/12/22 03:21:09;;;;;;;145.55;69.30;;;;;;;0.16;71.44;95316.45;1764510;81;21135;-50
2020/12/22 03:23:38;;;;;;;124.35;61.15;;;;;;;0.12;71.74;95319.70;1764515;81;21069;-50
2020/12/22 03:26:07;;;;;;;106.40;55.83;;;;;;;0.17;71.75;95314.75;1764625;80;21071;-50
2020/12/22 03:28:35;;;;;;;119.72;59.75;;;;;;;0.22;71.68;95316.36;1764480;80;21378;-48
2020/12/22 03:31:04;;;;;;;119.90;64.60;;;;;;;0.26;71.52;95314.47;1764449;80;21563;-49
2020/12/22 03:33:32;;;;;;;123.55;61.48;;;;;;;0.20;71.56;95311.30;1764466;80;21122;-50
2020/12/22 03:36:00;;;;;;;112.08;54.18;;;;;;;0.20;71.52;95311.30;1764490;81;21090;-51
2020/12/22 03:38:28;;;;;;;92.02;48.80;;;;;;;0.19;71.55;95312.45;1764526;81;21064;-49
2020/12/22 03:40:57;;;;;;;78.70;43.30;;;;;;;0.13;71.54;95306.37;1764515;80;21269;-49
2020/12/22 03:43:26;;;;;;;67.05;39.98;;;;;;;0.07;71.82;95311.32;1764621;81;21497;-52
2020/12/22 03:45:56;;;;;;;68.00;39.53;;;;;;;0.15;71.95;95303.52;1764522;80;21123;-50
2020/12/22 03:48:25;;;;;;;71.15;40.75;;;;;;;0.22;71.79;95293.37;1764530;80;21504;-51
2020/12/22 03:50:53;;;;;;;77.62;41.10;;;;;;;0.27;71.53;95284.36;1764497;80;21114;-52
2020/12/22 03:53:22;;;;;;;76.45;41.60;;;;;;;0.26;71.42;95280.06;1764452;80;21199;-51
2020/12/22 03:55:51;;;;;;;77.90;41.15;;;;;;;0.21;71.48;95279.64;1764431;81;21162;-50
2020/12/22 03:58:20;;;;;;;77.30;41.00;;;;;;;0.14;71.55;95283.03;1764476;80;21059;-51
2020/12/22 04:00:48;;;;;;;81.10;40.85;;;;;;;0.14;71.80;95285.73;1764503;80;21131;-52
2020/12/22 04:03:17;;;;;;;79.20;43.38;;;;;;;0.21;71.96;95287.16;1764522;81;21055;-54
2020/12/22 04:05:45;;;;;;;80.15;41.65;;;;;;;0.33;71.73;95284.79;1764469;81;21463;-49
2020/12/22 04:08:14;;;;;;;95.00;44.67;;;;;;;0.38;71.57;95287.95;1764362;81;21152;-50
2020/12/22 04:10:43;;;;;;;80.92;43.40;;;;;;;0.47;71.44;95287.10;1764483;81;21126;-50
2020/12/22 04:13:12;;;;;;;95.50;46.48;;;;;;;0.52;71.10;95278.64;1764465;81;21123;-50
2020/12/22 04:15:40;;;;;;;103.72;50.95;;;;;;;0.48;71.06;95275.13;1764475;81;21493;-49
2020/12/22 04:18:08;;;;;;;113.75;53.78;;;;;;;0.42;70.96;95266.35;1764489;81;21378;-49
2020/12/22 04:20:40;;;;;;;118.53;57.33;;;;;;;0.35;71.00;95268.40;1764526;80;21492;-50
2020/12/22 04:23:09;;;;;;;121.92;54.05;;;;;;;0.27;71.30;95264.07;1764554;80;21072;-50
2020/12/22 04:25:38;;;;;;;141.88;64.15;;;;;;;0.24;71.43;95267.48;1764440;81;21095;-50
2020/12/22 04:28:07;;;;;;;136.80;63.80;;;;;;;0.30;71.35;95256.56;1764455;81;21083;-50
2020/12/22 04:30:35;;;;;;;106.10;52.48;;;;;;;0.28;71.22;95255.36;1764469;81;21388;-50
2020/12/22 04:33:03;;;;;;;104.38;50.50;;;;;;;0.23;71.40;95251.64;1764459;81;21859;-50
2020/12/22 04:35:32;;;;;;;86.15;45.23;;;;;;;0.25;71.41;95252.81;1764471;81;21134;-50
2020/12/22 04:38:01;;;;;;;83.52;46.40;;;;;;;0.30;71.61;95253.86;1764449;81;21055;-50
2020/12/22 04:40:29;;;;;;;106.92;53.50;;;;;;;0.45;71.42;95257.49;1764575;81;21164;-50
2020/12/22 04:42:58;;;;;;;115.22;55.67;;;;;;;0.57;70.96;95259.36;1764425;80;21388;-49
2020/12/22 04:45:28;;;;;;;99.30;49.27;;;;;;;0.65;70.73;95250.73;1764406;80;21114;-50
2020/12/22 04:47:59;;;;;;;90.32;48.78;;;;;;;0.70;70.29;95248.48;1764509;80;21492;-50
2020/12/22 04:50:29;;;;;;;95.62;48.50;;;;;;;0.67;70.30;95250.58;1764518;81;21047;-51
2020/12/22 04:52:57;;;;;;;86.10;45.58;;;;;;;0.73;70.19;95249.09;1766181;80;21229;-50
2020/12/22 04:55:26;;;;;;;77.03;44.63;;;;;;;0.79;69.92;95244.87;1728181;81;21486;-49
2020/12/22 04:57:54;;;;;;;84.62;45.45;;;;;;;0.87;69.74;95247.08;1767473;81;21575;-51
2020/12/22 05:00:23;;;;;;;93.05;50.70;;;;;;;0.92;69.51;95243.45;1767521;81;21167;-50
2020/12/22 05:02:52;;;;;;;102.10;55.33;;;;;;;0.98;69.15;95243.90;1767605;80;21130;-50
2020/12/22 05:05:20;;;;;;;117.57;59.85;;;;;;;0.97;69.10;95237.69;1767738;80;21135;-51
2020/12/22 05:07:49;;;;;;;107.32;55.20;;;;;;;0.93;69.11;95234.18;1767591;81;21386;-51
2020/12/22 05:10:17;;;;;;;98.80;54.23;;;;;;;0.94;69.09;95236.33;1767638;81;21519;-51
2020/12/22 05:12:46;;;;;;;102.92;56.08;;;;;;;0.97;69.07;95236.34;1767600;81;21083;-52
2020/12/22 05:15:15;;;;;;;116.17;59.53;;;;;;;0.95;68.94;95232.47;1767600;81;21138;-50
2020/12/22 05:17:45;;;;;;;89.55;45.88;;;;;;;0.89;68.99;95235.30;1767582;81;21110;-50
2020/12/22 05:20:17;;;;;;;79.95;44.05;;;;;;;0.86;69.22;95231.42;1767737;80;22079;-51
2020/12/22 05:22:48;;;;;;;81.35;40.88;;;;;;;0.99;69.18;95227.85;1752956;81;21125;-50
2020/12/22 05:25:18;;;;;;;73.20;40.12;;;;;;;1.11;68.89;95224.27;1767679;80;21062;-50
2020/12/22 05:27:49;;;;;;;76.90;40.80;;;;;;;1.21;68.56;95218.17;1726893;81;21051;-50
2020/12/22 05:30:17;;;;;;;69.60;37.58;;;;;;;1.24;68.32;95216.06;1767623;81;21067;-51
2020/12/22 05:32:51;;;;;;;60.35;31.57;;;;;;;1.26;68.22;95217.02;1767598;81;21195;-51
2020/12/22 05:35:20;;;;;;;60.05;32.63;;;;;;;1.29;68.10;95216.30;1767588;81;21100;-50
2020/12/22 05:37:51;;;;;;;93.30;51.18;;;;;;;1.38;67.84;95212.09;1767626;79;21072;-51
2020/12/22 05:40:20;;;;;;;95.87;49.18;;;;;;;1.40;67.46;95209.78;1767705;79;21460;-50
2020/12/22 05:42:48;;;;;;;92.97;46.00;;;;;;;1.19;67.62;95211.00;1767546;81;21063;-50
2020/12/22 05:45:17;;;;;;;142.85;64.70;;;;;;;1.03;68.03;95210.48;1767640;81;23516;-50
2020/12/22 05:47:45;;;;;;;160.18;84.62;;;;;;;0.93;68.32;95205.74;1767541;80;21080;-51
2020/12/22 05:50:14;;;;;;;140.75;70.45;;;;;;;0.83;68.61;95201.59;1767523;81;21099;-51
2020/12/22 05:52:44;;;;;;;112.77;59.15;;;;;;;0.67;68.76;95200.50;1766550;81;21155;-51
2020/12/22 05:55:16;;;;;;;106.87;57.45;;;;;;;0.47;69.29;95199.15;1764574;80;21127;-50
2020/12/22 05:57:44;;;;;;;121.07;63.90;;;;;;;0.36;69.66;95200.96;1745254;81;21210;-54
2020/12/22 06:00:14;;;;;;;102.58;55.85;;;;;;;0.26;70.15;95201.61;1764531;80;21130;-53
2020/12/22 06:02:43;;;;;;;95.53;52.53;;;;;;;0.31;70.52;95205.36;1764580;80;21147;-50
2020/12/22 06:05:11;;;;;;;119.28;64.17;;;;;;;0.38;70.35;95205.42;1764546;81;21183;-51
2020/12/22 06:07:41;;;;;;;110.83;58.52;;;;;;;0.36;70.67;95211.78;1764509;81;21079;-52
2020/12/22 06:10:10;;;;;;;129.15;66.33;;;;;;;0.43;70.67;95215.14;1722008;81;21527;-52
2020/12/22 06:12:39;;;;;;;120.82;58.23;;;;;;;0.51;70.57;95215.41;1764516;81;21107;-51
2020/12/22 06:15:07;;;;;;;107.12;56.90;;;;;;;0.59;70.59;95214.34;1764593;80;21528;-53
2020/12/22 06:17:36;;;;;;;110.37;58.70;;;;;;;0.64;70.05;95220.20;1764596;80;21080;-54
2020/12/22 06:20:05;;;;;;;64.82;37.42;;;;;;;0.59;70.04;95204.87;1764546;80;21127;-50
2020/12/22 06:22:34;;;;;;;75.72;39.85;;;;;;;0.56;69.82;95207.73;1764647;80;22273;-53
2020/12/22 06:25:02;;;;;;;65.57;31.90;;;;;;;0.61;69.57;95203.91;1764315;80;21111;-53
2020/12/22 06:27:33;;;;;;;37.42;22.05;;;;;;;0.63;69.00;95201.61;1764480;81;21213;-54
2020/12/22 06:30:03;;;;;;;26.85;17.82;;;;;;;0.62;68.82;95194.64;1764511;80;21206;-51
2020/12/22 06:32:31;;;;;;;23.55;17.23;;;;;;;0.66;68.70;95195.45;1764397;81;21143;-51
2020/12/22 06:35:31;;;;;;;31.23;21.77;;;;;;;0.76;68.15;95182.00;1765459;80;21396;-52
2020/12/22 06:38:00;;;;;;;35.08;17.62;;;;;;;0.77;67.99;95185.50;1742016;80;21099;-51
2020/12/22 06:40:54;;;;;;;44.80;22.98;;;;;;;0.68;67.69;95185.81;1760814;80;21094;-51
2020/12/22 06:43:40;;;;;;;55.40;33.85;;;;;;;0.55;67.60;95173.70;1751608;80;21246;-49
2020/12/22 06:46:37;;;;;;;45.05;25.32;;;;;;;0.48;67.67;95183.11;1725873;81;21071;-50
2020/12/22 06:49:05;;;;;;;37.00;24.50;;;;;;;0.43;67.77;95181.31;1726013;81;21378;-51
2020/12/22 06:51:36;;;;;;;57.13;33.58;;;;;;;0.37;67.87;95172.75;1741220;81;21680;-50
2020/12/22 06:54:20;;;;;;;56.00;30.25;;;;;;;0.37;67.94;95172.75;1746908;80;21511;-48
2020/12/22 06:56:50;;;;;;;57.75;32.25;;;;;;;0.39;68.17;95178.56;1730506;81;21142;-50
2020/12/22 06:59:44;;;;;;;55.52;29.90;;;;;;;0.43;68.00;95172.61;1741060;81;21058;-51
2020/12/22 07:02:37;;;;;;;68.22;34.70;;;;;;;0.48;67.86;95180.41;1735146;81;21601;-52
2020/12/22 07:05:06;;;;;;;80.55;37.48;;;;;;;0.60;67.64;95175.29;1732376;80;21125;-51
2020/12/22 07:07:58;;;;;;;69.15;33.92;;;;;;;0.59;67.70;95175.09;1730851;81;21149;-54
2020/12/22 07:10:28;;;;;;;60.90;32.63;;;;;;;0.67;67.48;95181.55;1740361;80;21259;-51
2020/12/22 07:12:57;;;;;;;68.07;26.75;;;;;;;0.75;67.43;95176.38;1749993;80;21181;-51
2020/12/22 07:15:36;;;;;;;53.70;27.42;;;;;;;0.73;67.09;95175.98;1751134;81;21614;-53
2020/12/22 07:18:10;;;;;;;38.83;22.30;;;;;;;0.71;67.16;95179.64;1739853;81;21248;-53
2020/12/22 07:20:43;;;;;;;33.35;14.85;;;;;;;0.76;67.17;95172.52;1730088;81;21194;-52
2020/12/22 07:23:12;;;;;;;23.05;12.68;;;;;;;0.82;66.73;95171.05;1749511;80;21624;-53
2020/12/22 07:25:42;;;;;;;26.65;14.87;;;;;;;0.80;66.23;95170.62;1747290;80;21137;-53
2020/12/22 07:28:20;;;;;;;30.00;15.05;;;;;;;0.75;66.15;95164.20;1748708;80;22101;-52
2020/12/22 07:30:50;;;;;;;24.80;15.35;;;;;;;0.79;66.23;95160.18;1753542;80;21212;-50
2020/12/22 07:33:19;;;;;;;43.78;24.23;;;;;;;0.84;66.24;95170.66;1689289;81;21199;-52
2020/12/22 07:35:50;;;;;;;65.40;35.95;;;;;;;0.96;66.39;95175.20;1739574;81;21651;-53
2020/12/22 07:38:19;;;;;;;36.58;22.95;;;;;;;1.07;66.16;95174.71;1727277;81;21563;-53
2020/12/22 07:40:48;;;;;;;53.17;29.55;;;;;;;1.05;65.97;95172.96;1737807;81;21497;-52
2020/12/22 07:43:17;;;;;;;31.87;20.02;;;;;;;1.03;66.04;95179.33;1751720;81;21035;-50
2020/12/22 07:45:51;;;;;;;54.08;32.42;;;;;;;1.09;65.83;95169.69;1739560;81;21228;-53
2020/12/22 07:48:20;;;;;;;43.92;29.02;;;;;;;1.02;65.84;95157.46;1748569;81;21628;-54
2020/12/22 07:50:54;;;;;;;42.35;24.02;;;;;;;1.06;65.94;95166.95;1730256;81;21307;-54
2020/12/22 07:53:23;;;;;;;24.43;16.62;;;;;;;1.11;65.73;95170.68;1730070;81;21401;-51
2020/12/22 07:55:52;;;;;;;27.05;17.75;;;;;;;1.12;65.54;95170.28;1734242;82;21234;-50
2020/12/22 07:58:20;;;;;;;32.17;21.10;;;;;;;1.09;65.44;95166.19;1736504;80;21132;-54
2020/12/22 08:00:48;;;;;;;31.87;19.15;;;;;;;1.08;65.92;95165.43;1737988;80;21194;-51
2020/12/22 08:03:18;;;;;;;38.78;25.82;;;;;;;1.24;65.94;95159.16;1736089;80;21138;-57
2020/12/22 08:06:00;;;;;;;45.28;24.85;;;;;;;1.27;65.63;95154.33;1739838;81;21213;-54
2020/12/22 08:08:28;;;;;;;24.45;14.58;;;;;;;1.27;65.60;95154.33;1739956;80;21170;-53
2020/12/22 08:10:58;;;;;;;20.77;13.90;;;;;;;1.32;65.56;95162.09;1725624;80;21232;-51
2020/12/22 08:13:32;;;;;;;23.45;16.25;;;;;;;1.40;65.58;95151.52;1738766;82;21257;-53
2020/12/22 08:16:02;;;;;;;22.10;14.55;;;;;;;1.51;65.50;95146.91;1735510;82;21241;-54
2020/12/22 08:18:33;;;;;;;18.48;13.32;;;;;;;1.68;65.53;95148.93;1709015;82;21279;-54
2020/12/22 08:21:01;;;;;;;18.87;13.68;;;;;;;1.88;65.43;95155.59;1736944;82;21224;-53
2020/12/22 08:23:30;;;;;;;17.20;12.60;;;;;;;1.94;65.23;95154.09;1736711;81;21177;-55
2020/12/22 08:26:00;;;;;;;14.93;11.20;;;;;;;1.88;65.05;95158.31;1701831;82;21649;-52
2020/12/22 08:28:28;;;;;;;19.20;13.95;;;;;;;1.79;65.12;95157.91;1735238;81;21228;-54
2020/12/22 08:31:13;;;;;;;20.15;14.65;;;;;;;1.79;65.12;95153.83;1718799;83;22187;-53
2020/12/22 08:33:41;;;;;;;26.97;15.58;;;;;;;1.85;65.22;95153.09;1709261;82;21245;-54
2020/12/22 08:36:11;;;;;;;23.25;17.05;;;;;;;1.92;65.18;95154.46;1749068;80;21174;-57
2020/12/22 08:38:41;;;;;;;24.23;15.45;;;;;;;1.96;64.57;95146.34;1747023;81;21153;-56
2020/12/22 08:41:21;;;;;;;24.87;16.75;;;;;;;1.91;64.30;95147.48;1718882;82;21189;-58
2020/12/22 08:43:51;;;;;;;23.45;15.95;;;;;;;1.92;64.34;95142.85;1726457;81;21221;-55
2020/12/22 08:46:21;;;;;;;30.50;19.70;;;;;;;1.99;64.12;95130.66;1716539;82;38049;-55
2020/12/22 08:48:49;;;;;;;21.62;15.83;;;;;;;2.14;64.62;95128.19;1719856;82;21202;-51
2020/12/22 08:51:25;;;;;;;27.87;17.92;;;;;;;2.50;63.95;95123.02;1757389;80;21685;-52
2020/12/22 08:53:53;;;;;;;26.80;18.40;;;;;;;2.77;63.58;95113.31;1742535;80;21197;-54
2020/12/22 08:56:24;;;;;;;30.97;16.27;;;;;;;3.09;62.94;95109.41;1747486;82;21212;-52
2020/12/22 08:59:03;;;;;;;37.35;22.85;;;;;;;3.28;62.56;95098.70;1863320;76;22695;-52
2020/12/22 09:01:46;;;;;;;26.00;17.23;;;;;;;3.33;62.41;95088.78;1833566;76;21092;-52
2020/12/22 09:04:15;;;;;;;28.45;20.12;;;;;;;3.48;61.73;95093.81;1803348;77;21449;-55
2020/12/22 09:06:48;;;;;;;26.12;17.55;;;;;;;3.45;61.23;95086.41;1809208;78;21186;-54
2020/12/22 09:09:19;;;;;;;28.42;19.07;;;;;;;3.38;61.16;95085.69;1807213;78;21109;-56
2020/12/22 09:11:49;;;;;;;27.58;18.92;;;;;;;3.27;61.21;95068.02;1814073;78;21110;-56
2020/12/22 09:14:19;;;;;;;26.07;16.37;;;;;;;3.37;61.14;95071.88;1837694;78;21624;-55
2020/12/22 09:16:56;;;;;;;23.73;17.20;;;;;;;3.54;60.32;95067.75;1811601;78;21202;-56
2020/12/22 09:19:46;;;;;;;26.23;19.73;;;;;;;3.59;60.41;95073.56;1808155;76;21614;-56
2020/12/22 09:22:18;;;;;;;30.00;19.45;;;;;;;3.66;59.80;95068.69;1821898;78;21168;-56
2020/12/22 09:24:51;;;;;;;19.62;14.10;;;;;;;3.70;59.85;95064.75;1769593;80;21154;-57
2020/12/22 09:27:31;;;;;;;29.80;19.75;;;;;;;3.90;59.46;95058.27;1759034;81;21079;-56
2020/12/22 09:30:09;;;;;;;35.23;22.48;;;;;;;4.11;58.75;95048.04;1865049;74;20995;-55
2020/12/22 09:32:41;;;;;;;35.45;23.40;;;;;;;4.14;58.77;95049.95;1859623;76;21148;-56
2020/12/22 09:35:09;;;;;;;31.07;19.73;;;;;;;4.30;58.45;95048.89;1827117;77;21372;-52
2020/12/22 09:37:39;;;;;;;22.00;16.77;;;;;;;4.70;57.82;95042.73;1842154;76;21149;-54
2020/12/22 09:40:07;;;;;;;27.10;17.27;;;;;;;5.02;56.73;95028.23;1825837;78;21195;-54
2020/12/22 09:42:37;;;;;;;30.88;18.25;;;;;;;4.96;56.33;95036.64;1798553;78;21241;-53
2020/12/22 09:45:05;;;;;;;21.70;14.68;;;;;;;4.69;56.30;95032.23;1791712;78;21171;-55
2020/12/22 09:47:33;;;;;;;29.90;19.73;;;;;;;4.40;57.08;95021.39;1815187;78;21208;-50
2020/12/22 09:50:04;;;;;;;32.50;17.35;;;;;;;4.39;57.82;95019.84;1814565;77;21140;-52
2020/12/22 09:52:32;;;;;;;21.57;17.62;;;;;;;4.74;57.58;95011.34;1825423;78;21112;-53
2020/12/22 09:55:00;;;;;;;20.82;15.75;;;;;;;5.01;56.94;95006.21;1825808;78;22088;-53
2020/12/22 09:57:29;;;;;;;25.60;16.73;;;;;;;5.17;56.90;95006.44;1824731;78;21167;-53
2020/12/22 09:59:58;;;;;;;23.55;16.15;;;;;;;5.52;56.77;95003.31;1826421;77;21204;-54
2020/12/22 10:02:27;;;;;;;34.63;21.17;;;;;;;5.98;55.65;94984.41;1828700;77;21658;-54
2020/12/22 10:04:58;;;;;;;23.73;17.75;;;;;;;6.49;54.70;94984.03;1829236;77;21175;-56
2020/12/22 10:07:26;;;;;;;21.65;17.23;;;;;;;7.01;53.07;94974.91;1839384;77;21654;-53
2020/12/22 10:09:55;;;;;;;32.00;21.05;;;;;;;7.24;51.99;94970.17;1816818;77;21202;-54
2020/12/22 10:12:24;;;;;;;27.60;19.50;;;;;;;7.36;51.96;94961.33;1820771;77;21443;-55
2020/12/22 10:14:54;;;;;;;34.43;26.05;;;;;;;7.70;50.97;94953.59;1818016;77;21219;-56
2020/12/22 10:17:24;;;;;;;25.12;16.65;;;;;;;7.87;50.35;94948.33;1827221;77;22116;-55
2020/12/22 10:19:53;;;;;;;25.10;17.70;;;;;;;7.78;50.16;94950.89;1824111;77;21619;-56
2020/12/22 10:22:23;;;;;;;29.52;19.15;;;;;;;7.69;50.52;94947.94;1825821;77;21168;-56
2020/12/22 10:24:52;;;;;;;33.28;21.20;;;;;;;7.83;50.37;94940.80;1818942;77;22787;-53
2020/12/22 10:27:21;;;;;;;38.13;21.00;;;;;;;8.00;50.02;94935.52;1826016;78;21183;-52
2020/12/22 10:29:52;;;;;;;27.73;20.45;;;;;;;8.12;49.97;94923.12;1799030;78;21150;-54
2020/12/22 10:32:21;;;;;;;25.25;18.52;;;;;;;8.34;49.44;94926.34;1780693;79;21110;-60
2020/12/22 10:34:50;;;;;;;26.25;18.10;;;;;;;8.53;49.03;94925.48;1792025;78;21162;-55
2020/12/22 10:37:21;;;;;;;28.32;20.05;;;;;;;8.55;48.96;94924.45;1790169;78;21253;-56
2020/12/22 10:39:52;;;;;;;25.50;17.00;;;;;;;8.45;48.86;94921.97;1799892;78;21259;-54
2020/12/22 10:42:21;;;;;;;29.90;18.45;;;;;;;8.35;48.69;94919.66;1788284;80;21217;-56
2020/12/22 10:44:49;;;;;;;32.65;19.25;;;;;;;8.39;48.60;94908.59;1788708;80;21685;-53
2020/12/22 10:47:18;;;;;;;30.65;20.43;;;;;;;8.57;48.52;94905.59;1792814;78;21563;-57
2020/12/22 10:49:48;;;;;;;22.85;14.78;;;;;;;8.77;48.24;94893.91;1788328;80;22117;-56
2020/12/22 10:52:17;;;;;;;32.30;21.15;;;;;;;9.06;47.65;94887.84;1791008;78;21202;-54
2020/12/22 10:54:47;;;;;;;25.92;17.90;;;;;;;9.48;46.87;94878.40;1795752;78;21801;-53
2020/12/22 10:57:16;;;;;;;37.80;23.73;;;;;;;9.93;46.29;94874.87;1787201;80;21166;-54
2020/12/22 10:59:46;;;;;;;33.55;19.75;;;;;;;10.24;45.22;94864.30;1801001;78;21150;-56
2020/12/22 11:02:15;;;;;;;27.67;17.42;;;;;;;10.23;45.04;94861.98;1788900;78;21390;-55
2020/12/22 11:04:47;;;;;;;35.95;21.27;;;;;;;9.92;44.95;94860.97;1759021;79;21516;-52
2020/12/22 11:07:35;;;;;;;31.95;19.62;;;;;;;9.69;45.65;94855.80;1790468;78;21692;-54
2020/12/22 11:09:59;;;;;;;34.33;22.85;;;;;;;9.66;45.71;94859.42;1768795;79;21713;-55
2020/12/22 11:12:28;;;;;;;29.95;19.80;;;;;;;9.84;45.85;94867.28;1764126;80;21171;-54
2020/12/22 11:14:56;;;;;;;38.17;23.80;;;;;;;10.05;45.29;94859.02;1732799;82;21476;-51
2020/12/22 11:17:26;;;;;;;37.30;27.02;;;;;;;10.05;45.15;94852.15;1733762;82;21185;-53
2020/12/22 11:19:55;;;;;;;48.23;29.77;;;;;;;9.96;45.24;94852.03;1733702;82;21551;-55
2020/12/22 11:22:24;;;;;;;74.12;38.70;;;;;;;10.04;45.39;94854.73;1733433;82;21201;-53
2020/12/22 11:24:53;;;;;;;39.75;26.73;;;;;;;10.31;45.04;94849.55;1733238;82;21210;-54
2020/12/22 11:27:22;;;;;;;38.13;25.10;;;;;;;10.65;44.25;94844.06;1718139;82;21219;-54
2020/12/22 11:29:50;;;;;;;39.45;24.47;;;;;;;10.95;43.92;94831.19;1743505;81;21222;-54
2020/12/22 11:32:20;;;;;;;28.98;19.98;;;;;;;11.39;43.13;94833.34;1750417;81;21224;-53
2020/12/22 11:34:51;;;;;;;26.15;18.23;;;;;;;11.85;42.40;94829.02;1750430;81;22403;-55
2020/12/22 11:37:21;;;;;;;28.62;17.32;;;;;;;12.07;41.89;94827.58;1750620;81;21183;-56